Observation data for Seymour on 12/15/2019      Previous  Date       Current Mesonet Observations  Soil Data  Daily Summary Page  Observations in Plain Language
KSE1 150600Z 10009KT 06/02 A2974 RMK A01 T00610023  RH  078%=      5-min Rain = 0
KSE1 150605Z 10008KT 06/02 A2973 RMK A01 T00600023  RH  078%=      5-min Rain = 0
KSE1 150610Z 10008KT 06/02 A2973 RMK A01 T00590022  RH  079%=      5-min Rain = 0
KSE1 150615Z 09008KT 06/02 A2973 RMK A01 T00590023  RH  079%=      5-min Rain = 0
KSE1 150620Z 09009KT 06/02 A2973 RMK A01 T00600023  RH  078%=      5-min Rain = 0
KSE1 150625Z 09007KT 06/02 A2973 RMK A01 T00590022  RH  079%=      5-min Rain = 0
KSE1 150630Z 09007KT 06/02 A2973 RMK A01 T00580022  RH  079%=      5-min Rain = 0
KSE1 150635Z 09007KT 06/02 A2973 RMK A01 T00570022  RH  079%=      5-min Rain = 0
KSE1 150640Z 09006KT 06/02 A2973 RMK A01 T00570022  RH  079%=      5-min Rain = 0
KSE1 150645Z 09005KT 06/02 A2973 RMK A01 T00570021  RH  079%=      5-min Rain = 0
KSE1 150650Z 09006KT 06/02 A2973 RMK A01 T00550021  RH  080%=      5-min Rain = 0
KSE1 150655Z 09006KT 05/02 A2972 RMK A01 T00540021  RH  080%=      5-min Rain = 0
KSE1 150700Z 08005KT 05/02 A2972 RMK A01 T00540021  RH  081%=      5-min Rain = 0
KSE1 150705Z 08004KT 05/02 A2972 RMK A01 T00520020  RH  081%=      5-min Rain = 0
KSE1 150710Z 07005KT 05/02 A2972 RMK A01 T00500019  RH  082%=      5-min Rain = 0
KSE1 150715Z 07005KT 05/02 A2971 RMK A01 T00480019  RH  083%=      5-min Rain = 0
KSE1 150720Z 08005KT 05/02 A2971 RMK A01 T00480020  RH  083%=      5-min Rain = 0
KSE1 150725Z 08005KT 05/02 A2971 RMK A01 T00490020  RH  083%=      5-min Rain = 0
KSE1 150730Z 08004KT 05/02 A2971 RMK A01 T00480019  RH  083%=      5-min Rain = 0
KSE1 150735Z 08004KT 05/02 A297 RMK A01 T00470019  RH  083%=      5-min Rain = 0
KSE1 150740Z 07004KT 05/02 A297 RMK A01 T00460019  RH  084%=      5-min Rain = 0
KSE1 150745Z 07004KT 05/02 A297 RMK A01 T00450019  RH  084%=      5-min Rain = 0
KSE1 150750Z 07004KT 04/02 A297 RMK A01 T00440019  RH  085%=      5-min Rain = 0
KSE1 150755Z 06004KT 04/02 A297 RMK A01 T00440019  RH  085%=      5-min Rain = 0
KSE1 150800Z 06003KT 04/02 A297 RMK A01 T00440018  RH  085%=      5-min Rain = 0
KSE1 150805Z 05003KT 04/01 A297 RMK A01 T00380014  RH  085%=      5-min Rain = 0
KSE1 150810Z 04003KT 03/01 A297 RMK A01 T00320011  RH  087%=      5-min Rain = 0
KSE1 150815Z 03004KT 03/01 A297 RMK A01 T00280008  RH  088%=      5-min Rain = 0
KSE1 150820Z 03006KT 02/00 A297 RMK A01 T00220004  RH  089%=      5-min Rain = 0
KSE1 150825Z 04006KT 02/01 A297 RMK A01 T00220008  RH  091%=      5-min Rain = 0
KSE1 150830Z 04006KT 03/01 A297 RMK A01 T00260011  RH  091%=      5-min Rain = 0
KSE1 150835Z 04005KT 03/01 A297 RMK A01 T00260011  RH  091%=      5-min Rain = 0
KSE1 150840Z 03005KT 03/01 A297 RMK A01 T00250010  RH  091%=      5-min Rain = 0
KSE1 150845Z 04006KT 02/01 A297 RMK A01 T00240009  RH  091%=      5-min Rain = 0
KSE1 150850Z 05006KT 02/01 A297 RMK A01 T00230009  RH  092%=      5-min Rain = 0
KSE1 150855Z 04005KT 02/01 A297 RMK A01 T00230009  RH  092%=      5-min Rain = 0
KSE1 150900Z 04006KT 02/01 A297 RMK A01 T00230009  RH  092%=      5-min Rain = 0
KSE1 150905Z 05005KT 02/01 A297 RMK A01 T00230010  RH  093%=      5-min Rain = 0
KSE1 150910Z 06006KT 03/02 A297 RMK A01 T00290016  RH  092%=      5-min Rain = 0
KSE1 150915Z 05005KT 03/01 A297 RMK A01 T00290013  RH  091%=      5-min Rain = 0
KSE1 150920Z 05005KT 03/01 A297 RMK A01 T00260011  RH  091%=      5-min Rain = 0
KSE1 150925Z 04006KT 02/01 A2969 RMK A01 T00240010  RH  092%=      5-min Rain = 0
KSE1 150930Z 04006KT 02/01 A2969 RMK A01 T00240011  RH  093%=      5-min Rain = 0
KSE1 150935Z 03007KT 02/01 A2969 RMK A01 T00230010  RH  093%=      5-min Rain = 0
KSE1 150940Z 03007KT 02/01 A2969 RMK A01 T00230012  RH  093%=      5-min Rain = 0
KSE1 150945Z 02006KT 02/01 A2969 RMK A01 T00220009  RH  093%=      5-min Rain = 0
KSE1 150950Z 02006KT 02/01 A2969 RMK A01 T00180007  RH  093%=      5-min Rain = 0
KSE1 150955Z 02007KT 02/01 A2968 RMK A01 T00160006  RH  094%=      5-min Rain = 0
KSE1 151000Z 03007KT 02/01 A2968 RMK A01 T00160007  RH  095%=      5-min Rain = 0
KSE1 151005Z 02006KT 02/01 A2968 RMK A01 T00160006  RH  094%=      5-min Rain = 0
KSE1 151010Z 02005KT 01/00 A2968 RMK A01 T00130004  RH  095%=      5-min Rain = 0
KSE1 151015Z 02004KT 01/00 A2968 RMK A01 T00130004  RH  095%=      5-min Rain = 0
KSE1 151020Z 01004KT 01/00 A2968 RMK A01 T00110003  RH  095%=      5-min Rain = 0
KSE1 151025Z 00004KT 01/00 A2968 RMK A01 T00120004  RH  096%=      5-min Rain = 0
KSE1 151030Z 35002KT 01/01 A2968 RMK A01 T00140006  RH  096%=      5-min Rain = 0
KSE1 151035Z 36001KT 02/01 A2968 RMK A01 T00150007  RH  096%=      5-min Rain = 0
KSE1 151040Z 35004KT 02/01 A2968 RMK A01 T00150008  RH  096%=      5-min Rain = 0
KSE1 151045Z 35007KT 02/01 A2968 RMK A01 T00160009  RH  096%=      5-min Rain = 0
KSE1 151050Z 35007KT 02/01 A2968 RMK A01 T00190012  RH  096%=      5-min Rain = 0
KSE1 151055Z 35006KT 02/01 A2968 RMK A01 T00190011  RH  096%=      5-min Rain = 0
KSE1 151100Z 36006KT 02/01 A2969 RMK A01 T00190011  RH  096%=      5-min Rain = 0
KSE1 151105Z 01006KT 02/01 A2968 RMK A01 T00190011  RH  096%=      5-min Rain = 0
KSE1 151110Z 00006KT 02/01 A2968 RMK A01 T00200012  RH  096%=      5-min Rain = 0
KSE1 151115Z 01006KT 02/01 A2968 RMK A01 T00190011  RH  096%=      5-min Rain = 0
KSE1 151120Z 01006KT 02/01 A2968 RMK A01 T00190012  RH  096%=      5-min Rain = 0
KSE1 151125Z 01007KT 02/01 A2968 RMK A01 T00180011  RH  096%=      5-min Rain = 0
KSE1 151130Z 01007KT 02/01 A2968 RMK A01 T00170010  RH  096%=      5-min Rain = 0
KSE1 151135Z 01008KT 02/01 A2968 RMK A01 T00160009  RH  097%=      5-min Rain = 0
KSE1 151140Z 01007KT 02/01 A2968 RMK A01 T00160009  RH  097%=      5-min Rain = 0
KSE1 151145Z 01008KT 02/01 A2968 RMK A01 T00160009  RH  097%=      5-min Rain = 0
KSE1 151150Z 01008KT 02/01 A2969 RMK A01 T00180012  RH  097%=      5-min Rain = 0
KSE1 151155Z 01007KT 02/01 A2969 RMK A01 T00160009  RH  097%=      5-min Rain = 0
KSE1 151200Z 36007KT 02/01 A2969 RMK A01 T00190013  RH  097%=      5-min Rain = 0
KSE1 151205Z 36007KT 02/01 A2969 RMK A01 T00200014  RH  097%=      5-min Rain = 0
KSE1 151210Z 35006KT 02/01 A2969 RMK A01 T00180012  RH  097%=      5-min Rain = 0
KSE1 151215Z 35006KT 02/01 A297 RMK A01 T00160010  RH  097%=      5-min Rain = 0
KSE1 151220Z 35006KT 01/01 A297 RMK A01 T00140008  RH  097%=      5-min Rain = 0
KSE1 151225Z 35006KT 01/01 A297 RMK A01 T00130007  RH  097%=      5-min Rain = 0
KSE1 151230Z 34006KT 01/01 A297 RMK A01 T00110005  RH  097%=      5-min Rain = 0
KSE1 151235Z 34006KT 01/00 A297 RMK A01 T00100004  RH  097%=      5-min Rain = 0
KSE1 151240Z 34006KT 01/01 A2971 RMK A01 T00100005  RH  097%=      5-min Rain = 0
KSE1 151245Z 34006KT 01/01 A2971 RMK A01 T00100005  RH  098%=      5-min Rain = 0
KSE1 151250Z 34006KT 01/00 A2971 RMK A01 T00090004  RH  098%=      5-min Rain = 0
KSE1 151255Z 33005KT 01/00 A2971 RMK A01 T00080003  RH  098%=      5-min Rain = 0
KSE1 151300Z 31004KT 01/00 A2972 RMK A01 T00060001  RH  098%=      5-min Rain = 0
KSE1 151305Z 30004KT 00/M00 A2972 RMK A01 T00041002  RH  097%=      5-min Rain = 0
KSE1 151310Z 31004KT 00/M00 A2972 RMK A01 T00021004  RH  097%=      5-min Rain = 0
KSE1 151315Z 30004KT 00/M00 A2972 RMK A01 T00011003  RH  098%=      5-min Rain = 0
KSE1 151320Z 31006KT 00/M00 A2972 RMK A01 T00011004  RH  098%=      5-min Rain = 0
KSE1 151325Z 30005KT 00/00 A2972 RMK A01 T000000-4  RH  098%=      5-min Rain = 0
KSE1 151330Z 30005KT 00/01 A2973 RMK A01 T00-000-5  RH  098%=      5-min Rain = 0
KSE1 151335Z 30006KT 00/00 A2973 RMK A01 T000000-4  RH  098%=      5-min Rain = 0
KSE1 151340Z 30006KT 00/00 A2973 RMK A01 T00-000-4  RH  098%=      5-min Rain = 0
KSE1 151345Z 30007KT 00/00 A2973 RMK A01 T00-000-4  RH  098%=      5-min Rain = 0
KSE1 151350Z 31007KT 00/00 A2973 RMK A01 T000000-4  RH  098%=      5-min Rain = 0
KSE1 151355Z 30006KT 00/M00 A2973 RMK A01 T00011004  RH  098%=      5-min Rain = 0
KSE1 151400Z 30007KT 00/M00 A2974 RMK A01 T00021002  RH  098%=      5-min Rain = 0
KSE1 151405Z 30007KT 00/M00 A2974 RMK A01 T00041001  RH  098%=      5-min Rain = 0
KSE1 151410Z 30007KT 01/00 A2974 RMK A01 T00060001  RH  098%=      5-min Rain = 0
KSE1 151415Z 30007KT 01/00 A2974 RMK A01 T00070002  RH  098%=      5-min Rain = 0
KSE1 151420Z 31007KT 01/00 A2974 RMK A01 T00090004  RH  098%=      5-min Rain = 0
KSE1 151425Z 31008KT 01/01 A2974 RMK A01 T00120006  RH  097%=      5-min Rain = 0
KSE1 151430Z 32008KT 01/01 A2975 RMK A01 T00140007  RH  097%=      5-min Rain = 0
KSE1 151435Z 32008KT 02/01 A2975 RMK A01 T00150008  RH  096%=      5-min Rain = 0
KSE1 151440Z 33009KT 02/01 A2974 RMK A01 T00170009  RH  096%=      5-min Rain = 0
KSE1 151445Z 33008KT 02/01 A2975 RMK A01 T00190010  RH  096%=      5-min Rain = 0
KSE1 151450Z 33008KT 02/01 A2975 RMK A01 T00200011  RH  095%=      5-min Rain = 0
KSE1 151455Z 33007KT 02/01 A2975 RMK A01 T00230013  RH  095%=      5-min Rain = 0
KSE1 151500Z 33006KT 02/01 A2975 RMK A01 T00230013  RH  094%=      5-min Rain = 0
KSE1 151505Z 32004KT 03/02 A2976 RMK A01 T00250015  RH  095%=      5-min Rain = 0
KSE1 151510Z 28003KT 02/01 A2977 RMK A01 T00240014  RH  094%=      5-min Rain = 0
KSE1 151515Z 26003KT 03/02 A2978 RMK A01 T00260016  RH  095%=      5-min Rain = 0
KSE1 151520Z 26003KT 03/02 A2978 RMK A01 T00260016  RH  094%=      5-min Rain = 0
KSE1 151525Z 28003KT 03/02 A2978 RMK A01 T00270017  RH  094%=      5-min Rain = 0
KSE1 151530Z 29003KT 03/02 A2978 RMK A01 T00300019  RH  094%=      5-min Rain = 0
KSE1 151535Z 28004KT 03/02 A2979 RMK A01 T00310019  RH  093%=      5-min Rain = 0
KSE1 151540Z 29004KT 03/02 A2979 RMK A01 T00320019  RH  093%=      5-min Rain = 0
KSE1 151545Z 28004KT 03/02 A298 RMK A01 T00340021  RH  092%=      5-min Rain = 0
KSE1 151550Z 29005KT 04/02 A2981 RMK A01 T00360022  RH  092%=      5-min Rain = 0
KSE1 151555Z 28005KT 04/02 A2981 RMK A01 T00380022  RH  091%=      5-min Rain = 0
KSE1 151600Z 30005KT 04/02 A2981 RMK A01 T00390023  RH  091%=      5-min Rain = 0
KSE1 151605Z 30006KT 04/02 A2981 RMK A01 T00410024  RH  090%=      5-min Rain = 0
KSE1 151610Z 31007KT 04/03 A2981 RMK A01 T00420025  RH  091%=      5-min Rain = 0
KSE1 151615Z 32006KT 04/03 A2982 RMK A01 T00430027  RH  091%=      5-min Rain = 0
KSE1 151620Z 31006KT 05/03 A2982 RMK A01 T00450028  RH  090%=      5-min Rain = 0
KSE1 151625Z 32006KT 05/03 A2983 RMK A01 T00460028  RH  089%=      5-min Rain = 0
KSE1 151630Z 32008KT 05/03 A2983 RMK A01 T00460027  RH  089%=      5-min Rain = 0
KSE1 151635Z 32008KT 05/03 A2983 RMK A01 T00470027  RH  088%=      5-min Rain = 0
KSE1 151640Z 32009KT 05/03 A2983 RMK A01 T00490027  RH  087%=      5-min Rain = 0
KSE1 151645Z 33009KT 05/03 A2983 RMK A01 T00520029  RH  087%=      5-min Rain = 0
KSE1 151650Z 32009KT 05/03 A2983 RMK A01 T00540029  RH  086%=      5-min Rain = 0
KSE1 151655Z 33009KT 05/03 A2983 RMK A01 T00530029  RH  086%=      5-min Rain = 0
KSE1 151700Z 33011KT 05/03 A2983 RMK A01 T00540028  RH  085%=      5-min Rain = 0
KSE1 151705Z 33012KT 05/03 A2984 RMK A01 T00510028  RH  086%=      5-min Rain = 0
KSE1 151710Z 34011KT 05/03 A2984 RMK A01 T00520030  RH  087%=      5-min Rain = 0
KSE1 151715Z 33010G16KT 05/03 A2984 RMK A01 T00540030  RH  086%=      5-min Rain = 0
KSE1 151720Z 32013KT 05/03 A2984 RMK A01 T00530030  RH  086%=      5-min Rain = 0
KSE1 151725Z 32013KT 05/03 A2984 RMK A01 T00540030  RH  086%=      5-min Rain = 0
KSE1 151730Z 33014KT 06/03 A2984 RMK A01 T00560030  RH  085%=      5-min Rain = 0
KSE1 151735Z 33012KT 06/03 A2984 RMK A01 T00580031  RH  084%=      5-min Rain = 0
KSE1 151740Z 33013KT 06/03 A2984 RMK A01 T00600032  RH  084%=      5-min Rain = 0
KSE1 151745Z 35013KT 06/03 A2984 RMK A01 T00590031  RH  084%=      5-min Rain = 0
KSE1 151750Z 35012KT 06/03 A2984 RMK A01 T00600032  RH  084%=      5-min Rain = 0
KSE1 151755Z 35013KT 06/03 A2984 RMK A01 T00600032  RH  084%=      5-min Rain = 0
KSE1 151800Z 34013KT 06/03 A2984 RMK A01 T00620032  RH  083%=      5-min Rain = 0
KSE1 151805Z 34015KT 06/03 A2984 RMK A01 T00620032  RH  082%=      5-min Rain = 0
KSE1 151810Z 33014KT 06/03 A2984 RMK A01 T00630031  RH  081%=      5-min Rain = 0
KSE1 151815Z 34013KT 07/03 A2984 RMK A01 T00650032  RH  081%=      5-min Rain = 0
KSE1 151820Z 33012G17KT 07/03 A2985 RMK A01 T00650032  RH  081%=      5-min Rain = 0
KSE1 151825Z 34013KT 07/03 A2985 RMK A01 T00660032  RH  081%=      5-min Rain = 0
KSE1 151830Z 34012KT 07/03 A2985 RMK A01 T00650032  RH  081%=      5-min Rain = 0
KSE1 151835Z 34012KT 07/03 A2985 RMK A01 T00660032  RH  080%=      5-min Rain = 0
KSE1 151840Z 33012KT 07/03 A2984 RMK A01 T00670031  RH  079%=      5-min Rain = 0
KSE1 151845Z 34013KT 07/03 A2984 RMK A01 T00670030  RH  079%=      5-min Rain = 0
KSE1 151850Z 35013KT 07/03 A2984 RMK A01 T00680030  RH  078%=      5-min Rain = 0
KSE1 151855Z 34014KT 07/03 A2984 RMK A01 T00680029  RH  078%=      5-min Rain = 0
KSE1 151900Z 34013KT 07/03 A2985 RMK A01 T00670028  RH  077%=      5-min Rain = 0
KSE1 151905Z 34015KT 07/03 A2985 RMK A01 T00670028  RH  078%=      5-min Rain = 0
KSE1 151910Z 33014KT 07/03 A2984 RMK A01 T00670028  RH  077%=      5-min Rain = 0
KSE1 151915Z 33014KT 07/03 A2984 RMK A01 T00680028  RH  077%=      5-min Rain = 0
KSE1 151920Z 33015KT 07/03 A2984 RMK A01 T00650027  RH  078%=      5-min Rain = 0
KSE1 151925Z 33015KT 06/03 A2984 RMK A01 T00640027  RH  079%=      5-min Rain = 0
KSE1 151930Z 33015KT 06/03 A2984 RMK A01 T00620027  RH  079%=      5-min Rain = 0
KSE1 151935Z 34015KT 06/03 A2984 RMK A01 T00620026  RH  079%=      5-min Rain = 0
KSE1 151940Z 34016KT 06/03 A2984 RMK A01 T00620026  RH  079%=      5-min Rain = 0
KSE1 151945Z 33015KT 06/03 A2984 RMK A01 T00610025  RH  079%=      5-min Rain = 0
KSE1 151950Z 34015KT 06/03 A2984 RMK A01 T00600026  RH  080%=      5-min Rain = 0
KSE1 151955Z 34014KT 06/03 A2984 RMK A01 T00590026  RH  081%=      5-min Rain = 0
KSE1 152000Z 34015KT 06/03 A2984 RMK A01 T00580025  RH  081%=      5-min Rain = 0
KSE1 152005Z 34014KT 06/03 A2984 RMK A01 T00560025  RH  082%=      5-min Rain = 0
KSE1 152010Z 34015KT 06/02 A2984 RMK A01 T00580023  RH  080%=      5-min Rain = 0
KSE1 152015Z 34015G20KT 06/02 A2984 RMK A01 T00610022  RH  077%=      5-min Rain = 0
KSE1 152020Z 36015KT 06/02 A2984 RMK A01 T00610021  RH  077%=      5-min Rain = 0
KSE1 152025Z 34015G20KT 07/02 A2984 RMK A01 T00650023  RH  076%=      5-min Rain = 0
KSE1 152030Z 35015KT 07/02 A2983 RMK A01 T00670021  RH  073%=      5-min Rain = 0
KSE1 152035Z 35013KT 07/02 A2984 RMK A01 T00690021  RH  072%=      5-min Rain = 0
KSE1 152040Z 35016KT 07/02 A2983 RMK A01 T00730019  RH  070%=      5-min Rain = 0
KSE1 152045Z 34017KT 07/02 A2983 RMK A01 T00720017  RH  069%=      5-min Rain = 0
KSE1 152050Z 34016KT 08/02 A2983 RMK A01 T00750018  RH  068%=      5-min Rain = 0
KSE1 152055Z 35016KT 08/02 A2983 RMK A01 T00770018  RH  067%=      5-min Rain = 0
KSE1 152100Z 36015KT 08/02 A2983 RMK A01 T00770018  RH  067%=      5-min Rain = 0
KSE1 152105Z 00017G22KT 08/02 A2983 RMK A01 T00750016  RH  067%=      5-min Rain = 0
KSE1 152110Z 00015KT 08/02 A2983 RMK A01 T00750017  RH  067%=      5-min Rain = 0
KSE1 152115Z 35015KT 08/02 A2983 RMK A01 T00770017  RH  067%=      5-min Rain = 0
KSE1 152120Z 36013G19KT 08/02 A2984 RMK A01 T00770016  RH  066%=      5-min Rain = 0
KSE1 152125Z 35014KT 08/02 A2984 RMK A01 T00790017  RH  066%=      5-min Rain = 0
KSE1 152130Z 34015G21KT 08/02 A2984 RMK A01 T00790016  RH  066%=      5-min Rain = 0
KSE1 152135Z 36015KT 08/02 A2984 RMK A01 T00800016  RH  065%=      5-min Rain = 0
KSE1 152140Z 35016KT 08/02 A2983 RMK A01 T00770015  RH  065%=      5-min Rain = 0
KSE1 152145Z 34016KT 08/02 A2983 RMK A01 T00770015  RH  065%=      5-min Rain = 0
KSE1 152150Z 35015G20KT 08/01 A2983 RMK A01 T00780014  RH  065%=      5-min Rain = 0
KSE1 152155Z 36013KT 08/01 A2983 RMK A01 T00770014  RH  065%=      5-min Rain = 0
KSE1 152200Z 35016G22KT 08/01 A2983 RMK A01 T00770013  RH  065%=      5-min Rain = 0
KSE1 152205Z 35017KT 08/01 A2984 RMK A01 T00750012  RH  066%=      5-min Rain = 0
KSE1 152210Z 35016KT 07/01 A2984 RMK A01 T00730012  RH  066%=      5-min Rain = 0
KSE1 152215Z 36016KT 07/01 A2984 RMK A01 T00730012  RH  066%=      5-min Rain = 0
KSE1 152220Z 35015KT 07/01 A2984 RMK A01 T00720011  RH  066%=      5-min Rain = 0
KSE1 152225Z 35015KT 07/01 A2985 RMK A01 T00710011  RH  066%=      5-min Rain = 0
KSE1 152230Z 36014G19KT 07/01 A2985 RMK A01 T00700010  RH  066%=      5-min Rain = 0
KSE1 152235Z 36014KT 07/01 A2985 RMK A01 T00680009  RH  067%=      5-min Rain = 0
KSE1 152240Z 35016KT 07/01 A2985 RMK A01 T00670009  RH  067%=      5-min Rain = 0
KSE1 152245Z 35016KT 06/01 A2986 RMK A01 T00640008  RH  068%=      5-min Rain = 0
KSE1 152250Z 01016G21KT 06/01 A2987 RMK A01 T00610006  RH  069%=      5-min Rain = 0
KSE1 152255Z 36013KT 06/01 A2987 RMK A01 T00580005  RH  070%=      5-min Rain = 0
KSE1 152300Z 01015KT 06/00 A2987 RMK A01 T00560004  RH  071%=      5-min Rain = 0
KSE1 152305Z 01014KT 05/00 A2987 RMK A01 T00530004  RH  071%=      5-min Rain = 0
KSE1 152310Z 01013G18KT 05/00 A2987 RMK A01 T00510003  RH  072%=      5-min Rain = 0
KSE1 152315Z 01015KT 05/00 A2987 RMK A01 T00500003  RH  073%=      5-min Rain = 0
KSE1 152320Z 00013KT 05/00 A2987 RMK A01 T00490003  RH  073%=      5-min Rain = 0
KSE1 152325Z 01013KT 05/00 A2987 RMK A01 T00470003  RH  074%=      5-min Rain = 0
KSE1 152330Z 01014KT 05/00 A2987 RMK A01 T00460003  RH  075%=      5-min Rain = 0
KSE1 152335Z 01012KT 04/00 A2987 RMK A01 T00440002  RH  075%=      5-min Rain = 0
KSE1 152340Z 01011KT 04/00 A2988 RMK A01 T00430002  RH  076%=      5-min Rain = 0
KSE1 152345Z 01010G15KT 04/00 A2988 RMK A01 T00410002  RH  077%=      5-min Rain = 0
KSE1 152350Z 02011KT 04/00 A2988 RMK A01 T00410002  RH  077%=      5-min Rain = 0
KSE1 152355Z 01010KT 04/00 A2988 RMK A01 T00410002  RH  077%=      5-min Rain = 0
KSE1 160000Z 01009KT 04/00 A2989 RMK A01 T00410003  RH  077%=      5-min Rain = 0
KSE1 160005Z 02009KT 04/00 A2989 RMK A01 T00390002  RH  078%=      5-min Rain = 0
KSE1 160010Z 01013KT 04/00 A299 RMK A01 T003900-0  RH  077%=      5-min Rain = 0
KSE1 160015Z 01012KT 04/M00 A299 RMK A01 T00391001  RH  076%=      5-min Rain = 0
KSE1 160020Z 02011KT 04/M00 A299 RMK A01 T00361001  RH  077%=      5-min Rain = 0
KSE1 160025Z 01012KT 04/M00 A299 RMK A01 T00351002  RH  077%=      5-min Rain = 0
KSE1 160030Z 01010KT 03/M00 A299 RMK A01 T00341003  RH  077%=      5-min Rain = 0
KSE1 160035Z 02010G16KT 03/M00 A299 RMK A01 T00321004  RH  078%=      5-min Rain = 0
KSE1 160040Z 01011KT 03/M00 A2991 RMK A01 T00321004  RH  078%=      5-min Rain = 0
KSE1 160045Z 01010KT 03/M00 A2991 RMK A01 T00311004  RH  078%=      5-min Rain = 0
KSE1 160050Z 01009KT 03/M00 A2991 RMK A01 T00301004  RH  079%=      5-min Rain = 0
KSE1 160055Z 01009KT 03/M00 A2991 RMK A01 T00291004  RH  080%=      5-min Rain = 0
KSE1 160100Z 02009KT 03/M00 A2992 RMK A01 T00281004  RH  080%=      5-min Rain = 0
KSE1 160105Z 02009KT 03/M00 A2992 RMK A01 T00281004  RH  080%=      5-min Rain = 0
KSE1 160110Z 03009G14KT 03/M00 A2992 RMK A01 T00291004  RH  080%=      5-min Rain = 0
KSE1 160115Z 03009KT 03/M00 A2992 RMK A01 T00281004  RH  080%=      5-min Rain = 0
KSE1 160120Z 03009KT 03/M01 A2993 RMK A01 T00281005  RH  080%=      5-min Rain = 0
KSE1 160125Z 02011G16KT 03/M01 A2993 RMK A01 T00271006  RH  079%=      5-min Rain = 0
KSE1 160130Z 02011KT 03/M01 A2993 RMK A01 T00271007  RH  079%=      5-min Rain = 0
KSE1 160135Z 02009KT 03/M01 A2994 RMK A01 T00271006  RH  080%=      5-min Rain = 0
KSE1 160140Z 02009KT 03/M01 A2994 RMK A01 T00271006  RH  080%=      5-min Rain = 0
KSE1 160145Z 01012KT 03/M01 A2994 RMK A01 T00271007  RH  079%=      5-min Rain = 0
KSE1 160150Z 00013KT 03/M01 A2994 RMK A01 T00271007  RH  079%=      5-min Rain = 0
KSE1 160155Z 00012KT 03/M01 A2994 RMK A01 T00271008  RH  078%=      5-min Rain = 0
KSE1 160200Z 00010KT 03/M01 A2994 RMK A01 T00271007  RH  079%=      5-min Rain = 0
KSE1 160205Z 01009KT 03/M01 A2995 RMK A01 T00271007  RH  079%=      5-min Rain = 0
KSE1 160210Z 02010KT 03/M01 A2995 RMK A01 T00271005  RH  080%=      5-min Rain = 0
KSE1 160215Z 03012KT 03/M01 A2995 RMK A01 T00261007  RH  079%=      5-min Rain = 0
KSE1 160220Z 01015KT 02/M01 A2993 RMK A01 T00241009  RH  079%=      5-min Rain = 0
KSE1 160225Z 01015KT 02/M01 A2993 RMK A01 T00221012  RH  079%=      5-min Rain = 0
KSE1 160230Z 01013KT 02/M01 A2993 RMK A01 T00221012  RH  079%=      5-min Rain = 0
KSE1 160235Z 02014G20KT 02/M01 A2994 RMK A01 T00211012  RH  079%=      5-min Rain = 0
KSE1 160240Z 02012KT 02/M01 A2994 RMK A01 T00211012  RH  080%=      5-min Rain = 0
KSE1 160245Z 02012KT 02/M01 A2994 RMK A01 T00201012  RH  080%=      5-min Rain = 0
KSE1 160250Z 02010KT 02/M01 A2994 RMK A01 T00201012  RH  080%=      5-min Rain = 0
KSE1 160255Z 01012KT 02/M01 A2994 RMK A01 T00191012  RH  080%=      5-min Rain = 0
KSE1 160300Z 01011KT 02/M01 A2994 RMK A01 T00191012  RH  081%=      5-min Rain = 0
KSE1 160305Z 01010KT 02/M01 A2994 RMK A01 T00191012  RH  081%=      5-min Rain = 0
KSE1 160310Z 02009KT 02/M01 A2995 RMK A01 T00191011  RH  081%=      5-min Rain = 0
KSE1 160315Z 02010KT 02/M01 A2994 RMK A01 T00181011  RH  082%=      5-min Rain = 0
KSE1 160320Z 02011KT 02/M01 A2995 RMK A01 T00191011  RH  082%=      5-min Rain = 0
KSE1 160325Z 02011KT 02/M01 A2994 RMK A01 T00191011  RH  081%=      5-min Rain = 0
KSE1 160330Z 02011KT 02/M01 A2994 RMK A01 T00201010  RH  081%=      5-min Rain = 0
KSE1 160335Z 01010KT 02/M01 A2994 RMK A01 T00201010  RH  081%=      5-min Rain = 0
KSE1 160340Z 02009KT 02/M01 A2994 RMK A01 T00201010  RH  081%=      5-min Rain = 0
KSE1 160345Z 02009KT 02/M01 A2994 RMK A01 T00201010  RH  082%=      5-min Rain = 0
KSE1 160350Z 01012KT 02/M01 A2994 RMK A01 T00201010  RH  081%=      5-min Rain = 0
KSE1 160355Z 01010KT 02/M01 A2994 RMK A01 T00201010  RH  081%=      5-min Rain = 0
KSE1 160400Z 01012KT 02/M01 A2993 RMK A01 T00201010  RH  081%=      5-min Rain = 0
KSE1 160405Z 01011KT 02/M01 A2993 RMK A01 T00201010  RH  081%=      5-min Rain = 0
KSE1 160410Z 35011KT 02/M01 A2994 RMK A01 T00201010  RH  081%=      5-min Rain = 0
KSE1 160415Z 35010KT 02/M01 A2994 RMK A01 T00201011  RH  081%=      5-min Rain = 0
KSE1 160420Z 35010KT 02/M01 A2994 RMK A01 T00201011  RH  081%=      5-min Rain = 0
KSE1 160425Z 35011KT 02/M01 A2993 RMK A01 T00201012  RH  081%=      5-min Rain = 0
KSE1 160430Z 36010KT 02/M01 A2993 RMK A01 T00201011  RH  081%=      5-min Rain = 0
KSE1 160435Z 35012KT 02/M01 A2993 RMK A01 T00201012  RH  080%=      5-min Rain = 0
KSE1 160440Z 36009KT 02/M01 A2993 RMK A01 T00191012  RH  080%=      5-min Rain = 0
KSE1 160445Z 35011KT 02/M01 A2993 RMK A01 T00191012  RH  080%=      5-min Rain = 0
KSE1 160450Z 35010KT 02/M01 A2993 RMK A01 T00191012  RH  080%=      5-min Rain = 0
KSE1 160455Z 36010KT 02/M01 A2992 RMK A01 T00191012  RH  081%=      5-min Rain = 0
KSE1 160500Z 00011KT 02/M01 A2992 RMK A01 T00181013  RH  081%=      5-min Rain = 0
KSE1 160505Z 36011KT 02/M01 A2992 RMK A01 T00181013  RH  081%=      5-min Rain = 0
KSE1 160510Z 35013KT 02/M01 A2992 RMK A01 T00171014  RH  081%=      5-min Rain = 0
KSE1 160515Z 35011KT 02/M01 A2992 RMK A01 T00171014  RH  081%=      5-min Rain = 0
KSE1 160520Z 36011KT 02/M02 A2991 RMK A01 T00161015  RH  081%=      5-min Rain = 0
KSE1 160525Z 00012KT 02/M02 A2991 RMK A01 T00151015  RH  081%=      5-min Rain = 0
KSE1 160530Z 00009KT 02/M02 A2992 RMK A01 T00161015  RH  081%=      5-min Rain = 0
KSE1 160535Z 00010KT 02/M01 A2992 RMK A01 T00161014  RH  081%=      5-min Rain = 0
KSE1 160540Z 01011KT 02/M01 A2992 RMK A01 T00161014  RH  081%=      5-min Rain = 0
KSE1 160545Z 01011KT 02/M01 A2993 RMK A01 T00161014  RH  081%=      5-min Rain = 0
KSE1 160550Z 01011KT 02/M01 A2992 RMK A01 T00161014  RH  081%=      5-min Rain = 0
KSE1 160555Z 00012KT 02/M01 A2992 RMK A01 T00161014  RH  081%=      5-min Rain = 0

Page generated in 0.013 seconds.